sensor_id;sensor_type;location;lat;lon;timestamp;P1;durP1;ratioP1;P2;durP2;ratioP2
34102;SDS011;20381;54.498;18.206;2023-06-22T00:01:21;7.33;;;6.47;;
34102;SDS011;20381;54.498;18.206;2023-06-22T00:06:16;7.28;;;6.33;;
34102;SDS011;20381;54.498;18.206;2023-06-22T00:08:46;10.90;;;6.27;;
34102;SDS011;20381;54.498;18.206;2023-06-22T00:11:10;8.05;;;5.97;;
34102;SDS011;20381;54.498;18.206;2023-06-22T00:13:38;8.80;;;6.10;;
34102;SDS011;20381;54.498;18.206;2023-06-22T00:16:05;6.35;;;5.75;;
34102;SDS011;20381;54.498;18.206;2023-06-22T00:18:32;10.48;;;6.70;;
34102;SDS011;20381;54.498;18.206;2023-06-22T00:20:58;7.03;;;6.30;;
34102;SDS011;20381;54.498;18.206;2023-06-22T00:23:26;8.33;;;6.03;;
34102;SDS011;20381;54.498;18.206;2023-06-22T00:25:53;6.12;;;5.47;;
34102;SDS011;20381;54.498;18.206;2023-06-22T00:28:19;8.13;;;6.53;;
34102;SDS011;20381;54.498;18.206;2023-06-22T00:30:45;7.78;;;5.85;;
34102;SDS011;20381;54.498;18.206;2023-06-22T00:35:39;9.35;;;5.95;;
34102;SDS011;20381;54.498;18.206;2023-06-22T00:38:07;7.60;;;6.05;;
34102;SDS011;20381;54.498;18.206;2023-06-22T00:40:33;10.45;;;6.03;;
34102;SDS011;20381;54.498;18.206;2023-06-22T00:43:03;15.60;;;6.42;;
34102;SDS011;20381;54.498;18.206;2023-06-22T00:45:30;7.60;;;5.92;;
34102;SDS011;20381;54.498;18.206;2023-06-22T00:47:57;7.17;;;5.77;;
34102;SDS011;20381;54.498;18.206;2023-06-22T00:50:25;8.05;;;5.92;;
34102;SDS011;20381;54.498;18.206;2023-06-22T00:52:55;7.67;;;6.10;;
34102;SDS011;20381;54.498;18.206;2023-06-22T00:55:23;7.65;;;5.90;;
34102;SDS011;20381;54.498;18.206;2023-06-22T00:57:52;8.70;;;5.80;;
34102;SDS011;20381;54.498;18.206;2023-06-22T01:00:25;7.40;;;5.60;;
34102;SDS011;20381;54.498;18.206;2023-06-22T01:02:52;10.48;;;5.60;;
34102;SDS011;20381;54.498;18.206;2023-06-22T01:05:21;7.53;;;5.70;;
34102;SDS011;20381;54.498;18.206;2023-06-22T01:08:04;8.28;;;5.60;;
34102;SDS011;20381;54.498;18.206;2023-06-22T01:13:17;7.35;;;5.85;;
34102;SDS011;20381;54.498;18.206;2023-06-22T01:15:55;12.18;;;5.65;;
34102;SDS011;20381;54.498;18.206;2023-06-22T01:18:30;8.05;;;5.87;;
34102;SDS011;20381;54.498;18.206;2023-06-22T01:20:58;8.00;;;6.55;;
34102;SDS011;20381;54.498;18.206;2023-06-22T01:23:35;9.18;;;6.53;;
34102;SDS011;20381;54.498;18.206;2023-06-22T01:26:05;8.05;;;5.33;;
34102;SDS011;20381;54.498;18.206;2023-06-22T01:31:09;9.80;;;6.83;;
34102;SDS011;20381;54.498;18.206;2023-06-22T01:33:39;8.70;;;6.05;;
34102;SDS011;20381;54.498;18.206;2023-06-22T01:36:08;10.53;;;6.47;;
34102;SDS011;20381;54.498;18.206;2023-06-22T01:38:37;10.70;;;6.67;;
34102;SDS011;20381;54.498;18.206;2023-06-22T01:41:04;10.30;;;7.12;;
34102;SDS011;20381;54.498;18.206;2023-06-22T01:43:31;15.88;;;7.72;;
34102;SDS011;20381;54.498;18.206;2023-06-22T01:46:02;12.95;;;8.05;;
34102;SDS011;20381;54.498;18.206;2023-06-22T01:48:27;11.53;;;7.37;;
34102;SDS011;20381;54.498;18.206;2023-06-22T01:50:54;11.90;;;7.70;;
34102;SDS011;20381;54.498;18.206;2023-06-22T01:53:23;12.95;;;8.20;;
34102;SDS011;20381;54.498;18.206;2023-06-22T01:55:54;9.05;;;7.42;;
34102;SDS011;20381;54.498;18.206;2023-06-22T02:00:51;16.07;;;8.95;;
34102;SDS011;20381;54.498;18.206;2023-06-22T02:03:21;10.05;;;7.83;;
34102;SDS011;20381;54.498;18.206;2023-06-22T02:05:52;10.72;;;8.50;;
34102;SDS011;20381;54.498;18.206;2023-06-22T02:08:23;13.03;;;7.85;;
34102;SDS011;20381;54.498;18.206;2023-06-22T02:10:58;12.10;;;8.53;;
34102;SDS011;20381;54.498;18.206;2023-06-22T02:13:26;11.88;;;8.45;;
34102;SDS011;20381;54.498;18.206;2023-06-22T02:15:53;9.88;;;7.67;;
34102;SDS011;20381;54.498;18.206;2023-06-22T02:18:20;12.13;;;7.58;;
34102;SDS011;20381;54.498;18.206;2023-06-22T02:20:46;14.10;;;7.60;;
34102;SDS011;20381;54.498;18.206;2023-06-22T02:23:12;13.85;;;7.87;;
34102;SDS011;20381;54.498;18.206;2023-06-22T02:25:44;12.43;;;7.90;;
34102;SDS011;20381;54.498;18.206;2023-06-22T02:28:10;10.65;;;7.53;;
34102;SDS011;20381;54.498;18.206;2023-06-22T02:30:36;11.90;;;7.58;;
34102;SDS011;20381;54.498;18.206;2023-06-22T02:33:03;10.28;;;6.65;;
34102;SDS011;20381;54.498;18.206;2023-06-22T02:35:29;9.45;;;6.72;;
34102;SDS011;20381;54.498;18.206;2023-06-22T02:38:01;9.13;;;7.25;;
34102;SDS011;20381;54.498;18.206;2023-06-22T02:40:29;13.72;;;7.78;;
34102;SDS011;20381;54.498;18.206;2023-06-22T02:42:56;9.43;;;6.55;;
34102;SDS011;20381;54.498;18.206;2023-06-22T02:45:24;14.58;;;7.35;;
34102;SDS011;20381;54.498;18.206;2023-06-22T02:47:50;9.63;;;7.17;;
34102;SDS011;20381;54.498;18.206;2023-06-22T02:50:17;11.30;;;7.28;;
34102;SDS011;20381;54.498;18.206;2023-06-22T02:52:43;10.45;;;7.30;;
34102;SDS011;20381;54.498;18.206;2023-06-22T02:55:09;12.98;;;8.10;;
34102;SDS011;20381;54.498;18.206;2023-06-22T02:57:36;10.75;;;7.47;;
34102;SDS011;20381;54.498;18.206;2023-06-22T03:00:03;11.57;;;7.85;;
34102;SDS011;20381;54.498;18.206;2023-06-22T03:02:32;9.23;;;7.20;;
34102;SDS011;20381;54.498;18.206;2023-06-22T03:04:59;8.68;;;7.53;;
34102;SDS011;20381;54.498;18.206;2023-06-22T03:07:27;11.43;;;7.12;;
34102;SDS011;20381;54.498;18.206;2023-06-22T03:09:55;10.80;;;7.60;;
34102;SDS011;20381;54.498;18.206;2023-06-22T03:12:21;10.40;;;6.95;;
34102;SDS011;20381;54.498;18.206;2023-06-22T03:14:48;12.65;;;7.40;;
34102;SDS011;20381;54.498;18.206;2023-06-22T03:17:14;11.57;;;7.17;;
34102;SDS011;20381;54.498;18.206;2023-06-22T03:19:40;11.22;;;6.97;;
34102;SDS011;20381;54.498;18.206;2023-06-22T03:22:09;13.85;;;8.40;;
34102;SDS011;20381;54.498;18.206;2023-06-22T03:24:35;12.33;;;6.90;;
34102;SDS011;20381;54.498;18.206;2023-06-22T03:27:04;11.45;;;6.67;;
34102;SDS011;20381;54.498;18.206;2023-06-22T03:29:31;9.88;;;7.47;;
34102;SDS011;20381;54.498;18.206;2023-06-22T03:31:57;10.20;;;7.72;;
34102;SDS011;20381;54.498;18.206;2023-06-22T03:34:23;11.50;;;7.50;;
34102;SDS011;20381;54.498;18.206;2023-06-22T03:36:50;11.03;;;7.77;;
34102;SDS011;20381;54.498;18.206;2023-06-22T03:39:17;16.52;;;8.13;;
34102;SDS011;20381;54.498;18.206;2023-06-22T03:41:47;13.15;;;6.92;;
34102;SDS011;20381;54.498;18.206;2023-06-22T03:44:14;11.78;;;7.10;;
34102;SDS011;20381;54.498;18.206;2023-06-22T03:46:44;13.95;;;6.65;;
34102;SDS011;20381;54.498;18.206;2023-06-22T03:49:12;11.20;;;6.33;;
34102;SDS011;20381;54.498;18.206;2023-06-22T03:51:38;7.72;;;6.40;;
34102;SDS011;20381;54.498;18.206;2023-06-22T03:54:04;11.38;;;6.62;;
34102;SDS011;20381;54.498;18.206;2023-06-22T03:56:30;13.65;;;6.95;;
34102;SDS011;20381;54.498;18.206;2023-06-22T03:58:57;12.90;;;6.70;;
34102;SDS011;20381;54.498;18.206;2023-06-22T04:01:25;11.78;;;6.03;;
34102;SDS011;20381;54.498;18.206;2023-06-22T04:03:56;12.80;;;5.65;;
34102;SDS011;20381;54.498;18.206;2023-06-22T04:06:19;9.45;;;5.70;;
34102;SDS011;20381;54.498;18.206;2023-06-22T04:08:46;10.40;;;5.53;;
34102;SDS011;20381;54.498;18.206;2023-06-22T04:11:17;10.35;;;5.80;;
34102;SDS011;20381;54.498;18.206;2023-06-22T04:13:44;9.33;;;5.00;;
34102;SDS011;20381;54.498;18.206;2023-06-22T04:16:11;9.98;;;4.92;;
34102;SDS011;20381;54.498;18.206;2023-06-22T04:18:37;14.50;;;5.70;;
34102;SDS011;20381;54.498;18.206;2023-06-22T04:21:08;11.55;;;5.17;;
34102;SDS011;20381;54.498;18.206;2023-06-22T04:23:31;11.50;;;5.45;;
34102;SDS011;20381;54.498;18.206;2023-06-22T04:25:57;7.97;;;4.57;;
34102;SDS011;20381;54.498;18.206;2023-06-22T04:28:25;9.23;;;5.05;;
34102;SDS011;20381;54.498;18.206;2023-06-22T04:30:55;8.05;;;4.22;;
34102;SDS011;20381;54.498;18.206;2023-06-22T04:33:23;6.50;;;4.53;;
34102;SDS011;20381;54.498;18.206;2023-06-22T04:35:49;6.50;;;4.25;;
34102;SDS011;20381;54.498;18.206;2023-06-22T04:38:16;6.95;;;4.30;;
34102;SDS011;20381;54.498;18.206;2023-06-22T04:40:42;8.53;;;4.55;;
34102;SDS011;20381;54.498;18.206;2023-06-22T04:43:09;16.32;;;4.37;;
34102;SDS011;20381;54.498;18.206;2023-06-22T04:45:35;6.33;;;4.28;;
34102;SDS011;20381;54.498;18.206;2023-06-22T04:48:04;7.05;;;3.60;;
34102;SDS011;20381;54.498;18.206;2023-06-22T04:50:31;5.30;;;3.60;;
34102;SDS011;20381;54.498;18.206;2023-06-22T04:53:00;5.65;;;3.42;;
34102;SDS011;20381;54.498;18.206;2023-06-22T04:55:32;6.25;;;3.70;;
34102;SDS011;20381;54.498;18.206;2023-06-22T04:57:59;10.08;;;3.50;;
34102;SDS011;20381;54.498;18.206;2023-06-22T05:00:27;7.33;;;3.58;;
34102;SDS011;20381;54.498;18.206;2023-06-22T05:02:54;6.47;;;3.52;;
34102;SDS011;20381;54.498;18.206;2023-06-22T05:05:23;6.17;;;3.30;;
34102;SDS011;20381;54.498;18.206;2023-06-22T05:10:19;6.85;;;3.40;;
34102;SDS011;20381;54.498;18.206;2023-06-22T05:15:12;7.20;;;3.20;;
34102;SDS011;20381;54.498;18.206;2023-06-22T05:17:44;4.67;;;2.62;;
34102;SDS011;20381;54.498;18.206;2023-06-22T05:20:13;10.95;;;3.45;;
34102;SDS011;20381;54.498;18.206;2023-06-22T05:22:39;9.28;;;2.72;;
34102;SDS011;20381;54.498;18.206;2023-06-22T05:25:07;6.33;;;2.62;;
34102;SDS011;20381;54.498;18.206;2023-06-22T05:27:34;15.55;;;4.10;;
34102;SDS011;20381;54.498;18.206;2023-06-22T05:30:04;11.03;;;3.05;;
34102;SDS011;20381;54.498;18.206;2023-06-22T05:32:32;8.53;;;2.90;;
34102;SDS011;20381;54.498;18.206;2023-06-22T05:34:59;9.25;;;2.90;;
34102;SDS011;20381;54.498;18.206;2023-06-22T05:37:26;7.40;;;2.72;;
34102;SDS011;20381;54.498;18.206;2023-06-22T05:39:52;6.50;;;2.70;;
34102;SDS011;20381;54.498;18.206;2023-06-22T05:42:19;4.67;;;2.35;;
34102;SDS011;20381;54.498;18.206;2023-06-22T05:44:46;5.08;;;2.70;;
34102;SDS011;20381;54.498;18.206;2023-06-22T05:47:12;7.40;;;2.80;;
34102;SDS011;20381;54.498;18.206;2023-06-22T05:49:39;12.70;;;2.80;;
34102;SDS011;20381;54.498;18.206;2023-06-22T05:52:05;12.75;;;2.65;;
34102;SDS011;20381;54.498;18.206;2023-06-22T05:54:33;13.53;;;3.00;;
34102;SDS011;20381;54.498;18.206;2023-06-22T05:57:00;9.90;;;2.72;;
34102;SDS011;20381;54.498;18.206;2023-06-22T05:59:28;4.90;;;2.22;;
34102;SDS011;20381;54.498;18.206;2023-06-22T06:01:54;5.40;;;2.20;;
34102;SDS011;20381;54.498;18.206;2023-06-22T06:04:20;6.63;;;2.10;;
34102;SDS011;20381;54.498;18.206;2023-06-22T06:06:46;6.08;;;2.00;;
34102;SDS011;20381;54.498;18.206;2023-06-22T06:09:13;5.60;;;2.10;;
34102;SDS011;20381;54.498;18.206;2023-06-22T06:14:09;5.60;;;1.90;;
34102;SDS011;20381;54.498;18.206;2023-06-22T06:16:37;16.40;;;2.58;;
34102;SDS011;20381;54.498;18.206;2023-06-22T06:19:04;20.17;;;3.20;;
34102;SDS011;20381;54.498;18.206;2023-06-22T06:21:32;8.33;;;2.10;;
34102;SDS011;20381;54.498;18.206;2023-06-22T06:23:58;8.53;;;2.00;;
34102;SDS011;20381;54.498;18.206;2023-06-22T06:26:24;5.27;;;2.17;;
34102;SDS011;20381;54.498;18.206;2023-06-22T06:28:55;5.35;;;2.08;;
34102;SDS011;20381;54.498;18.206;2023-06-22T06:31:23;7.75;;;2.47;;
34102;SDS011;20381;54.498;18.206;2023-06-22T06:33:49;22.10;;;2.87;;
34102;SDS011;20381;54.498;18.206;2023-06-22T06:36:16;12.10;;;2.20;;
34102;SDS011;20381;54.498;18.206;2023-06-22T06:38:46;10.65;;;2.33;;
34102;SDS011;20381;54.498;18.206;2023-06-22T06:41:14;13.18;;;2.40;;
34102;SDS011;20381;54.498;18.206;2023-06-22T06:43:42;27.32;;;3.42;;
34102;SDS011;20381;54.498;18.206;2023-06-22T06:46:09;11.03;;;2.12;;
34102;SDS011;20381;54.498;18.206;2023-06-22T06:48:35;9.75;;;2.10;;
34102;SDS011;20381;54.498;18.206;2023-06-22T06:51:07;8.40;;;2.37;;
34102;SDS011;20381;54.498;18.206;2023-06-22T06:53:31;9.95;;;2.25;;
34102;SDS011;20381;54.498;18.206;2023-06-22T06:55:57;8.47;;;2.70;;
34102;SDS011;20381;54.498;18.206;2023-06-22T06:58:25;12.18;;;2.20;;
34102;SDS011;20381;54.498;18.206;2023-06-22T07:00:53;23.57;;;3.10;;
34102;SDS011;20381;54.498;18.206;2023-06-22T07:03:19;9.13;;;2.05;;
